sensor_id;sensor_type;location;lat;lon;timestamp;P1;durP1;ratioP1;P2;durP2;ratioP2
9324;SDS011;4701;51.566;6.776;2023-02-28T07:02:44;6.53;;;5.03;;
9324;SDS011;4701;51.566;6.776;2023-02-28T07:04:47;7.80;;;4.90;;
9324;SDS011;4701;51.566;6.776;2023-02-28T07:06:49;9.20;;;5.13;;
9324;SDS011;4701;51.566;6.776;2023-02-28T07:08:51;7.83;;;5.07;;
9324;SDS011;4701;51.566;6.776;2023-02-28T07:10:54;8.03;;;5.23;;
9324;SDS011;4701;51.566;6.776;2023-02-28T07:12:56;9.83;;;5.30;;
9324;SDS011;4701;51.566;6.776;2023-02-28T07:14:58;8.63;;;5.30;;
9324;SDS011;4701;51.566;6.776;2023-02-28T07:17:04;6.57;;;4.60;;
9324;SDS011;4701;51.566;6.776;2023-02-28T07:19:16;7.80;;;5.00;;
9324;SDS011;4701;51.566;6.776;2023-02-28T07:21:22;7.50;;;5.40;;
9324;SDS011;4701;51.566;6.776;2023-02-28T07:23:30;6.27;;;4.47;;
9324;SDS011;4701;51.566;6.776;2023-02-28T07:25:38;8.17;;;4.70;;
9324;SDS011;4701;51.566;6.776;2023-02-28T07:27:47;7.63;;;4.87;;
9324;SDS011;4701;51.566;6.776;2023-02-28T07:29:52;7.47;;;5.27;;
9324;SDS011;4701;51.566;6.776;2023-02-28T07:31:55;6.70;;;4.97;;
9324;SDS011;4701;51.566;6.776;2023-02-28T07:33:57;6.93;;;4.93;;
9324;SDS011;4701;51.566;6.776;2023-02-28T07:36:03;6.57;;;4.40;;
9324;SDS011;4701;51.566;6.776;2023-02-28T07:38:07;9.90;;;5.70;;
9324;SDS011;4701;51.566;6.776;2023-02-28T07:40:10;7.87;;;5.10;;
9324;SDS011;4701;51.566;6.776;2023-02-28T07:42:13;5.13;;;4.47;;
9324;SDS011;4701;51.566;6.776;2023-02-28T07:44:15;7.67;;;4.67;;
9324;SDS011;4701;51.566;6.776;2023-02-28T07:46:17;5.83;;;4.30;;
9324;SDS011;4701;51.566;6.776;2023-02-28T07:48:21;6.83;;;4.47;;
9324;SDS011;4701;51.566;6.776;2023-02-28T07:50:23;7.43;;;4.03;;
9324;SDS011;4701;51.566;6.776;2023-02-28T07:52:26;6.90;;;3.93;;
9324;SDS011;4701;51.566;6.776;2023-02-28T07:54:28;6.67;;;4.03;;
9324;SDS011;4701;51.566;6.776;2023-02-28T07:56:30;6.50;;;4.07;;
9324;SDS011;4701;51.566;6.776;2023-02-28T07:58:32;4.70;;;4.20;;
9324;SDS011;4701;51.566;6.776;2023-02-28T08:00:34;5.33;;;3.93;;
9324;SDS011;4701;51.566;6.776;2023-02-28T08:02:35;10.07;;;5.27;;
9324;SDS011;4701;51.566;6.776;2023-02-28T08:04:37;5.53;;;3.53;;
9324;SDS011;4701;51.566;6.776;2023-02-28T08:06:39;5.57;;;3.73;;
9324;SDS011;4701;51.566;6.776;2023-02-28T08:08:42;7.97;;;3.83;;
9324;SDS011;4701;51.566;6.776;2023-02-28T08:10:44;6.67;;;3.90;;
9324;SDS011;4701;51.566;6.776;2023-02-28T08:12:46;7.27;;;3.77;;
9324;SDS011;4701;51.566;6.776;2023-02-28T08:14:48;6.97;;;4.33;;
9324;SDS011;4701;51.566;6.776;2023-02-28T08:16:49;9.63;;;4.43;;
9324;SDS011;4701;51.566;6.776;2023-02-28T08:18:51;4.33;;;3.70;;
9324;SDS011;4701;51.566;6.776;2023-02-28T08:20:54;5.50;;;3.57;;
9324;SDS011;4701;51.566;6.776;2023-02-28T08:22:56;3.77;;;3.37;;
9324;SDS011;4701;51.566;6.776;2023-02-28T08:25:00;3.87;;;3.33;;
9324;SDS011;4701;51.566;6.776;2023-02-28T08:27:01;5.40;;;3.73;;
9324;SDS011;4701;51.566;6.776;2023-02-28T08:29:03;8.47;;;3.67;;
9324;SDS011;4701;51.566;6.776;2023-02-28T08:31:09;5.57;;;3.23;;
9324;SDS011;4701;51.566;6.776;2023-02-28T08:33:13;6.17;;;3.50;;
9324;SDS011;4701;51.566;6.776;2023-02-28T08:35:15;4.97;;;3.33;;
9324;SDS011;4701;51.566;6.776;2023-02-28T08:37:17;6.20;;;3.00;;
9324;SDS011;4701;51.566;6.776;2023-02-28T08:39:19;3.77;;;3.13;;
9324;SDS011;4701;51.566;6.776;2023-02-28T08:41:22;4.87;;;3.00;;
9324;SDS011;4701;51.566;6.776;2023-02-28T08:43:24;5.50;;;2.73;;
9324;SDS011;4701;51.566;6.776;2023-02-28T08:45:26;5.10;;;3.40;;
9324;SDS011;4701;51.566;6.776;2023-02-28T08:47:28;4.23;;;2.90;;
9324;SDS011;4701;51.566;6.776;2023-02-28T08:49:29;5.80;;;2.80;;
9324;SDS011;4701;51.566;6.776;2023-02-28T08:51:31;5.23;;;3.57;;
9324;SDS011;4701;51.566;6.776;2023-02-28T08:53:33;4.80;;;3.00;;
9324;SDS011;4701;51.566;6.776;2023-02-28T08:55:36;6.53;;;3.53;;
9324;SDS011;4701;51.566;6.776;2023-02-28T08:57:39;9.37;;;3.03;;
9324;SDS011;4701;51.566;6.776;2023-02-28T08:59:41;4.93;;;2.80;;
9324;SDS011;4701;51.566;6.776;2023-02-28T09:01:42;6.40;;;2.70;;
9324;SDS011;4701;51.566;6.776;2023-02-28T09:03:45;3.83;;;2.63;;
9324;SDS011;4701;51.566;6.776;2023-02-28T09:05:51;2.90;;;2.20;;
9324;SDS011;4701;51.566;6.776;2023-02-28T09:07:54;9.73;;;2.60;;
9324;SDS011;4701;51.566;6.776;2023-02-28T09:09:57;3.60;;;2.50;;
9324;SDS011;4701;51.566;6.776;2023-02-28T09:11:59;4.37;;;2.70;;
9324;SDS011;4701;51.566;6.776;2023-02-28T09:14:03;6.93;;;2.80;;
9324;SDS011;4701;51.566;6.776;2023-02-28T09:16:06;2.70;;;2.20;;
9324;SDS011;4701;51.566;6.776;2023-02-28T09:18:12;3.00;;;2.50;;
9324;SDS011;4701;51.566;6.776;2023-02-28T09:20:14;2.17;;;2.00;;
9324;SDS011;4701;51.566;6.776;2023-02-28T09:22:16;2.97;;;2.30;;
9324;SDS011;4701;51.566;6.776;2023-02-28T09:24:18;8.13;;;2.20;;
9324;SDS011;4701;51.566;6.776;2023-02-28T09:26:21;4.80;;;2.30;;
9324;SDS011;4701;51.566;6.776;2023-02-28T09:28:24;2.90;;;2.30;;
9324;SDS011;4701;51.566;6.776;2023-02-28T09:30:28;3.50;;;2.10;;
9324;SDS011;4701;51.566;6.776;2023-02-28T09:32:31;3.97;;;2.10;;
9324;SDS011;4701;51.566;6.776;2023-02-28T09:34:32;2.10;;;1.90;;
9324;SDS011;4701;51.566;6.776;2023-02-28T09:36:34;2.47;;;2.00;;
9324;SDS011;4701;51.566;6.776;2023-02-28T09:38:38;2.63;;;1.73;;
9324;SDS011;4701;51.566;6.776;2023-02-28T09:40:44;4.57;;;1.87;;
9324;SDS011;4701;51.566;6.776;2023-02-28T09:42:51;2.37;;;1.90;;
9324;SDS011;4701;51.566;6.776;2023-02-28T09:44:54;2.70;;;2.00;;
9324;SDS011;4701;51.566;6.776;2023-02-28T09:47:00;1.67;;;1.57;;
9324;SDS011;4701;51.566;6.776;2023-02-28T09:49:08;2.67;;;1.70;;
9324;SDS011;4701;51.566;6.776;2023-02-28T09:51:20;3.13;;;1.83;;
9324;SDS011;4701;51.566;6.776;2023-02-28T09:53:31;3.47;;;1.97;;
9324;SDS011;4701;51.566;6.776;2023-02-28T09:55:37;3.07;;;1.60;;
9324;SDS011;4701;51.566;6.776;2023-02-28T09:57:43;2.97;;;1.70;;
9324;SDS011;4701;51.566;6.776;2023-02-28T09:59:51;2.80;;;1.60;;
9324;SDS011;4701;51.566;6.776;2023-02-28T10:02:04;1.90;;;1.60;;
9324;SDS011;4701;51.566;6.776;2023-02-28T10:04:22;1.80;;;1.47;;
9324;SDS011;4701;51.566;6.776;2023-02-28T10:06:39;2.10;;;1.73;;
9324;SDS011;4701;51.566;6.776;2023-02-28T10:08:50;3.47;;;1.83;;
9324;SDS011;4701;51.566;6.776;2023-02-28T10:11:00;1.83;;;1.70;;
9324;SDS011;4701;51.566;6.776;2023-02-28T10:13:05;2.30;;;1.70;;
9324;SDS011;4701;51.566;6.776;2023-02-28T10:15:14;4.00;;;1.90;;
9324;SDS011;4701;51.566;6.776;2023-02-28T10:17:19;1.40;;;1.30;;
9324;SDS011;4701;51.566;6.776;2023-02-28T10:19:25;1.87;;;1.37;;
9324;SDS011;4701;51.566;6.776;2023-02-28T10:21:35;2.30;;;1.40;;
9324;SDS011;4701;51.566;6.776;2023-02-28T10:23:39;1.40;;;1.30;;
9324;SDS011;4701;51.566;6.776;2023-02-28T10:25:42;1.67;;;1.37;;
9324;SDS011;4701;51.566;6.776;2023-02-28T10:27:49;2.37;;;1.40;;
9324;SDS011;4701;51.566;6.776;2023-02-28T10:29:55;2.37;;;1.60;;
9324;SDS011;4701;51.566;6.776;2023-02-28T10:31:59;1.90;;;1.47;;
9324;SDS011;4701;51.566;6.776;2023-02-28T10:34:04;2.93;;;1.60;;
9324;SDS011;4701;51.566;6.776;2023-02-28T10:36:08;1.43;;;1.33;;
9324;SDS011;4701;51.566;6.776;2023-02-28T10:38:17;2.10;;;1.30;;
9324;SDS011;4701;51.566;6.776;2023-02-28T10:40:29;1.50;;;1.30;;
9324;SDS011;4701;51.566;6.776;2023-02-28T10:42:33;3.73;;;1.43;;
9324;SDS011;4701;51.566;6.776;2023-02-28T10:44:39;2.37;;;1.70;;
9324;SDS011;4701;51.566;6.776;2023-02-28T10:46:41;4.67;;;1.63;;
9324;SDS011;4701;51.566;6.776;2023-02-28T10:48:44;2.57;;;1.80;;
9324;SDS011;4701;51.566;6.776;2023-02-28T10:50:52;4.37;;;1.70;;
9324;SDS011;4701;51.566;6.776;2023-02-28T10:53:05;2.47;;;1.60;;
9324;SDS011;4701;51.566;6.776;2023-02-28T10:55:19;2.00;;;1.60;;
9324;SDS011;4701;51.566;6.776;2023-02-28T10:57:25;1.60;;;1.40;;
9324;SDS011;4701;51.566;6.776;2023-02-28T10:59:29;2.27;;;1.60;;
9324;SDS011;4701;51.566;6.776;2023-02-28T11:01:35;2.23;;;1.73;;
9324;SDS011;4701;51.566;6.776;2023-02-28T11:03:39;3.30;;;2.20;;
9324;SDS011;4701;51.566;6.776;2023-02-28T11:05:41;4.20;;;2.20;;
9324;SDS011;4701;51.566;6.776;2023-02-28T11:07:46;5.63;;;2.03;;
9324;SDS011;4701;51.566;6.776;2023-02-28T11:09:53;2.10;;;1.90;;
9324;SDS011;4701;51.566;6.776;2023-02-28T11:11:56;4.30;;;2.07;;
9324;SDS011;4701;51.566;6.776;2023-02-28T11:14:02;1.83;;;1.67;;
9324;SDS011;4701;51.566;6.776;2023-02-28T11:16:06;2.60;;;2.17;;
9324;SDS011;4701;51.566;6.776;2023-02-28T11:18:18;4.57;;;2.00;;
9324;SDS011;4701;51.566;6.776;2023-02-28T11:20:25;3.93;;;2.00;;
9324;SDS011;4701;51.566;6.776;2023-02-28T11:22:30;2.33;;;2.03;;
9324;SDS011;4701;51.566;6.776;2023-02-28T11:24:40;3.63;;;2.50;;
9324;SDS011;4701;51.566;6.776;2023-02-28T11:26:46;4.07;;;2.40;;
9324;SDS011;4701;51.566;6.776;2023-02-28T11:28:49;3.00;;;2.37;;
9324;SDS011;4701;51.566;6.776;2023-02-28T11:31:25;2.50;;;2.30;;
9324;SDS011;4701;51.566;6.776;2023-02-28T11:33:30;3.20;;;2.20;;
9324;SDS011;4701;51.566;6.776;2023-02-28T11:35:34;2.33;;;1.83;;
9324;SDS011;4701;51.566;6.776;2023-02-28T11:37:40;4.07;;;2.30;;
9324;SDS011;4701;51.566;6.776;2023-02-28T11:39:44;2.30;;;1.90;;
9324;SDS011;4701;51.566;6.776;2023-02-28T11:41:52;2.87;;;2.17;;
9324;SDS011;4701;51.566;6.776;2023-02-28T11:44:06;4.83;;;2.10;;
9324;SDS011;4701;51.566;6.776;2023-02-28T11:46:22;3.97;;;2.37;;
9324;SDS011;4701;51.566;6.776;2023-02-28T11:48:33;3.33;;;2.80;;
9324;SDS011;4701;51.566;6.776;2023-02-28T11:50:45;4.30;;;1.80;;
9324;SDS011;4701;51.566;6.776;2023-02-28T11:52:53;2.83;;;2.20;;
9324;SDS011;4701;51.566;6.776;2023-02-28T11:55:01;3.50;;;2.00;;
9324;SDS011;4701;51.566;6.776;2023-02-28T11:57:15;2.50;;;2.30;;
9324;SDS011;4701;51.566;6.776;2023-02-28T11:59:33;3.00;;;2.20;;
9324;SDS011;4701;51.566;6.776;2023-02-28T12:01:54;3.33;;;2.40;;
9324;SDS011;4701;51.566;6.776;2023-02-28T12:04:11;4.57;;;2.20;;
9324;SDS011;4701;51.566;6.776;2023-02-28T12:06:22;4.90;;;2.33;;
9324;SDS011;4701;51.566;6.776;2023-02-28T12:08:37;1.73;;;1.63;;
9324;SDS011;4701;51.566;6.776;2023-02-28T12:10:56;2.00;;;1.50;;
9324;SDS011;4701;51.566;6.776;2023-02-28T12:13:10;2.10;;;1.83;;
9324;SDS011;4701;51.566;6.776;2023-02-28T12:18:03;4.80;;;1.80;;
9324;SDS011;4701;51.566;6.776;2023-02-28T12:20:13;2.03;;;1.70;;
9324;SDS011;4701;51.566;6.776;2023-02-28T12:22:26;2.83;;;2.10;;
9324;SDS011;4701;51.566;6.776;2023-02-28T12:24:39;4.47;;;2.10;;
9324;SDS011;4701;51.566;6.776;2023-02-28T12:26:54;1.80;;;1.70;;
9324;SDS011;4701;51.566;6.776;2023-02-28T12:29:02;2.10;;;1.90;;
9324;SDS011;4701;51.566;6.776;2023-02-28T12:31:12;3.67;;;2.10;;
9324;SDS011;4701;51.566;6.776;2023-02-28T12:33:19;3.70;;;2.60;;
9324;SDS011;4701;51.566;6.776;2023-02-28T12:35:26;2.10;;;1.90;;
9324;SDS011;4701;51.566;6.776;2023-02-28T12:37:34;5.73;;;2.27;;
9324;SDS011;4701;51.566;6.776;2023-02-28T12:39:41;2.50;;;2.03;;
9324;SDS011;4701;51.566;6.776;2023-02-28T12:41:47;2.87;;;2.30;;
9324;SDS011;4701;51.566;6.776;2023-02-28T12:43:55;2.27;;;2.00;;
9324;SDS011;4701;51.566;6.776;2023-02-28T12:46:02;2.60;;;2.30;;
9324;SDS011;4701;51.566;6.776;2023-02-28T12:48:11;3.43;;;2.00;;
9324;SDS011;4701;51.566;6.776;2023-02-28T12:50:16;3.13;;;2.20;;
9324;SDS011;4701;51.566;6.776;2023-02-28T12:52:19;2.80;;;2.30;;
9324;SDS011;4701;51.566;6.776;2023-02-28T12:54:27;5.77;;;2.60;;
9324;SDS011;4701;51.566;6.776;2023-02-28T12:56:38;2.70;;;2.50;;
9324;SDS011;4701;51.566;6.776;2023-02-28T12:58:47;3.00;;;2.20;;
9324;SDS011;4701;51.566;6.776;2023-02-28T13:03:32;3.60;;;2.77;;
9324;SDS011;4701;51.566;6.776;2023-02-28T13:06:00;3.83;;;2.47;;
9324;SDS011;4701;51.566;6.776;2023-02-28T13:08:43;3.67;;;1.80;;
9324;SDS011;4701;51.566;6.776;2023-02-28T13:11:02;3.00;;;2.70;;
9324;SDS011;4701;51.566;6.776;2023-02-28T13:13:04;4.70;;;2.40;;
9324;SDS011;4701;51.566;6.776;2023-02-28T13:15:07;4.70;;;2.40;;
9324;SDS011;4701;51.566;6.776;2023-02-28T13:17:21;5.17;;;2.07;;
9324;SDS011;4701;51.566;6.776;2023-02-28T13:19:27;2.70;;;2.00;;
9324;SDS011;4701;51.566;6.776;2023-02-28T13:21:32;3.53;;;2.70;;
9324;SDS011;4701;51.566;6.776;2023-02-28T13:23:58;5.00;;;2.30;;
9324;SDS011;4701;51.566;6.776;2023-02-28T13:26:01;7.53;;;2.90;;
9324;SDS011;4701;51.566;6.776;2023-02-28T13:28:08;2.70;;;2.10;;
9324;SDS011;4701;51.566;6.776;2023-02-28T13:37:46;9.17;;;2.70;;
9324;SDS011;4701;51.566;6.776;2023-02-28T13:39:54;6.83;;;5.53;;
9324;SDS011;4701;51.566;6.776;2023-02-28T13:41:56;4.30;;;3.43;;
9324;SDS011;4701;51.566;6.776;2023-02-28T13:43:59;4.63;;;2.40;;
9324;SDS011;4701;51.566;6.776;2023-02-28T13:46:04;3.93;;;1.87;;
9324;SDS011;4701;51.566;6.776;2023-02-28T13:48:18;3.03;;;2.10;;
9324;SDS011;4701;51.566;6.776;2023-02-28T13:50:27;2.77;;;1.87;;
9324;SDS011;4701;51.566;6.776;2023-02-28T13:52:36;5.33;;;2.50;;
9324;SDS011;4701;51.566;6.776;2023-02-28T13:54:52;2.47;;;2.10;;
9324;SDS011;4701;51.566;6.776;2023-02-28T13:57:05;3.33;;;2.20;;
9324;SDS011;4701;51.566;6.776;2023-02-28T13:59:19;5.27;;;2.40;;
9324;SDS011;4701;51.566;6.776;2023-02-28T14:01:35;5.60;;;2.13;;
9324;SDS011;4701;51.566;6.776;2023-02-28T14:03:55;4.03;;;2.20;;
9324;SDS011;4701;51.566;6.776;2023-02-28T14:06:15;2.43;;;1.90;;
9324;SDS011;4701;51.566;6.776;2023-02-28T14:08:21;1.93;;;1.80;;
9324;SDS011;4701;51.566;6.776;2023-02-28T14:10:25;2.20;;;1.73;;
9324;SDS011;4701;51.566;6.776;2023-02-28T14:14:57;2.63;;;1.80;;
9324;SDS011;4701;51.566;6.776;2023-02-28T14:16:59;2.67;;;2.00;;
9324;SDS011;4701;51.566;6.776;2023-02-28T14:19:05;5.07;;;2.00;;
9324;SDS011;4701;51.566;6.776;2023-02-28T14:21:16;3.53;;;1.57;;
9324;SDS011;4701;51.566;6.776;2023-02-28T14:23:35;1.63;;;1.53;;
9324;SDS011;4701;51.566;6.776;2023-02-28T14:25:47;3.97;;;2.00;;
9324;SDS011;4701;51.566;6.776;2023-02-28T14:28:05;2.10;;;1.87;;
9324;SDS011;4701;51.566;6.776;2023-02-28T14:30:18;2.53;;;1.60;;
9324;SDS011;4701;51.566;6.776;2023-02-28T14:32:32;2.73;;;1.90;;
9324;SDS011;4701;51.566;6.776;2023-02-28T14:34:37;3.63;;;2.10;;
9324;SDS011;4701;51.566;6.776;2023-02-28T14:36:48;2.63;;;2.10;;
9324;SDS011;4701;51.566;6.776;2023-02-28T14:38:56;1.90;;;1.67;;
9324;SDS011;4701;51.566;6.776;2023-02-28T14:41:00;2.10;;;1.90;;
9324;SDS011;4701;51.566;6.776;2023-02-28T14:43:16;3.93;;;1.90;;
9324;SDS011;4701;51.566;6.776;2023-02-28T14:45:22;2.17;;;1.90;;
9324;SDS011;4701;51.566;6.776;2023-02-28T14:47:25;2.33;;;2.00;;
9324;SDS011;4701;51.566;6.776;2023-02-28T14:49:32;2.87;;;2.03;;
9324;SDS011;4701;51.566;6.776;2023-02-28T14:51:37;1.90;;;1.80;;
9324;SDS011;4701;51.566;6.776;2023-02-28T14:53:39;6.07;;;2.20;;
9324;SDS011;4701;51.566;6.776;2023-02-28T14:55:44;3.57;;;2.20;;
9324;SDS011;4701;51.566;6.776;2023-02-28T14:57:54;7.30;;;1.93;;
9324;SDS011;4701;51.566;6.776;2023-02-28T14:59:58;3.33;;;2.47;;
9324;SDS011;4701;51.566;6.776;2023-02-28T15:02:14;2.73;;;2.07;;
9324;SDS011;4701;51.566;6.776;2023-02-28T15:04:22;2.47;;;2.10;;
9324;SDS011;4701;51.566;6.776;2023-02-28T15:06:27;5.07;;;1.80;;
9324;SDS011;4701;51.566;6.776;2023-02-28T15:08:29;2.57;;;1.90;;
9324;SDS011;4701;51.566;6.776;2023-02-28T15:10:35;5.47;;;2.07;;
9324;SDS011;4701;51.566;6.776;2023-02-28T15:12:40;4.27;;;2.00;;
9324;SDS011;4701;51.566;6.776;2023-02-28T15:14:43;2.63;;;1.80;;
9324;SDS011;4701;51.566;6.776;2023-02-28T15:16:45;3.57;;;1.90;;
9324;SDS011;4701;51.566;6.776;2023-02-28T15:18:53;2.53;;;2.27;;
9324;SDS011;4701;51.566;6.776;2023-02-28T15:20:58;2.60;;;2.27;;
9324;SDS011;4701;51.566;6.776;2023-02-28T15:23:03;3.83;;;2.13;;
9324;SDS011;4701;51.566;6.776;2023-02-28T15:25:06;2.40;;;1.93;;
9324;SDS011;4701;51.566;6.776;2023-02-28T15:27:13;3.43;;;2.40;;
9324;SDS011;4701;51.566;6.776;2023-02-28T15:29:24;2.97;;;2.20;;
9324;SDS011;4701;51.566;6.776;2023-02-28T15:31:29;2.67;;;2.47;;
9324;SDS011;4701;51.566;6.776;2023-02-28T15:33:33;4.87;;;2.43;;
9324;SDS011;4701;51.566;6.776;2023-02-28T15:35:35;4.27;;;2.07;;
9324;SDS011;4701;51.566;6.776;2023-02-28T15:37:38;5.17;;;2.00;;
9324;SDS011;4701;51.566;6.776;2023-02-28T15:39:42;3.27;;;2.20;;
9324;SDS011;4701;51.566;6.776;2023-02-28T15:41:45;2.37;;;2.10;;
9324;SDS011;4701;51.566;6.776;2023-02-28T15:43:47;3.60;;;2.40;;
9324;SDS011;4701;51.566;6.776;2023-02-28T15:45:51;2.40;;;2.20;;
9324;SDS011;4701;51.566;6.776;2023-02-28T15:47:54;2.73;;;2.37;;
9324;SDS011;4701;51.566;6.776;2023-02-28T15:49:56;3.80;;;2.47;;
9324;SDS011;4701;51.566;6.776;2023-02-28T15:52:01;3.30;;;2.50;;
9324;SDS011;4701;51.566;6.776;2023-02-28T15:54:06;4.20;;;2.17;;
9324;SDS011;4701;51.566;6.776;2023-02-28T15:56:16;4.13;;;2.30;;
9324;SDS011;4701;51.566;6.776;2023-02-28T15:58:24;5.27;;;2.33;;
9324;SDS011;4701;51.566;6.776;2023-02-28T16:00:27;2.60;;;2.30;;
9324;SDS011;4701;51.566;6.776;2023-02-28T16:02:34;2.97;;;2.20;;
9324;SDS011;4701;51.566;6.776;2023-02-28T16:04:37;6.77;;;2.43;;
9324;SDS011;4701;51.566;6.776;2023-02-28T16:07:00;2.90;;;2.20;;
9324;SDS011;4701;51.566;6.776;2023-02-28T16:09:03;2.73;;;2.13;;
9324;SDS011;4701;51.566;6.776;2023-02-28T16:11:08;3.87;;;2.70;;
9324;SDS011;4701;51.566;6.776;2023-02-28T16:13:11;5.53;;;2.77;;
9324;SDS011;4701;51.566;6.776;2023-02-28T16:15:19;3.37;;;2.70;;
9324;SDS011;4701;51.566;6.776;2023-02-28T16:17:23;4.20;;;2.20;;
9324;SDS011;4701;51.566;6.776;2023-02-28T16:19:29;6.27;;;2.50;;
9324;SDS011;4701;51.566;6.776;2023-02-28T16:21:31;4.43;;;3.53;;
9324;SDS011;4701;51.566;6.776;2023-02-28T16:23:33;7.43;;;5.43;;
9324;SDS011;4701;51.566;6.776;2023-02-28T16:25:35;3.53;;;2.43;;
9324;SDS011;4701;51.566;6.776;2023-02-28T16:27:38;4.77;;;2.47;;
9324;SDS011;4701;51.566;6.776;2023-02-28T16:29:40;4.27;;;2.20;;
9324;SDS011;4701;51.566;6.776;2023-02-28T16:31:42;4.77;;;4.00;;
9324;SDS011;4701;51.566;6.776;2023-02-28T16:33:44;11.17;;;5.17;;
9324;SDS011;4701;51.566;6.776;2023-02-28T16:35:47;14.33;;;10.23;;
9324;SDS011;4701;51.566;6.776;2023-02-28T16:37:50;5.03;;;3.00;;
9324;SDS011;4701;51.566;6.776;2023-02-28T16:39:53;3.00;;;2.17;;
9324;SDS011;4701;51.566;6.776;2023-02-28T16:41:55;4.03;;;2.50;;
9324;SDS011;4701;51.566;6.776;2023-02-28T16:43:57;3.23;;;2.20;;
9324;SDS011;4701;51.566;6.776;2023-02-28T16:46:00;5.13;;;2.40;;
9324;SDS011;4701;51.566;6.776;2023-02-28T16:48:03;4.67;;;2.90;;
9324;SDS011;4701;51.566;6.776;2023-02-28T16:50:08;3.33;;;2.40;;
9324;SDS011;4701;51.566;6.776;2023-02-28T16:52:15;7.27;;;2.73;;
9324;SDS011;4701;51.566;6.776;2023-02-28T16:54:17;6.13;;;2.50;;
9324;SDS011;4701;51.566;6.776;2023-02-28T16:56:20;4.43;;;2.60;;
9324;SDS011;4701;51.566;6.776;2023-02-28T16:58:23;3.17;;;2.70;;
9324;SDS011;4701;51.566;6.776;2023-02-28T17:00:27;4.43;;;2.80;;
9324;SDS011;4701;51.566;6.776;2023-02-28T17:02:30;3.40;;;2.60;;
9324;SDS011;4701;51.566;6.776;2023-02-28T17:04:32;3.57;;;2.87;;
9324;SDS011;4701;51.566;6.776;2023-02-28T17:06:34;4.10;;;2.87;;
9324;SDS011;4701;51.566;6.776;2023-02-28T17:08:37;3.30;;;2.93;;
9324;SDS011;4701;51.566;6.776;2023-02-28T17:10:39;3.90;;;2.70;;
9324;SDS011;4701;51.566;6.776;2023-02-28T17:12:41;4.30;;;2.47;;
9324;SDS011;4701;51.566;6.776;2023-02-28T17:14:43;4.23;;;2.60;;
9324;SDS011;4701;51.566;6.776;2023-02-28T17:16:45;3.00;;;2.70;;
9324;SDS011;4701;51.566;6.776;2023-02-28T17:18:47;4.43;;;2.83;;
9324;SDS011;4701;51.566;6.776;2023-02-28T17:20:49;17.07;;;12.53;;
9324;SDS011;4701;51.566;6.776;2023-02-28T17:22:51;9.13;;;6.07;;
9324;SDS011;4701;51.566;6.776;2023-02-28T17:24:54;5.17;;;4.30;;
9324;SDS011;4701;51.566;6.776;2023-02-28T17:26:57;4.03;;;2.83;;
9324;SDS011;4701;51.566;6.776;2023-02-28T17:28:59;5.73;;;2.77;;
9324;SDS011;4701;51.566;6.776;2023-02-28T17:31:01;6.70;;;2.77;;
9324;SDS011;4701;51.566;6.776;2023-02-28T17:33:03;3.47;;;2.90;;
9324;SDS011;4701;51.566;6.776;2023-02-28T17:35:05;4.87;;;2.73;;
9324;SDS011;4701;51.566;6.776;2023-02-28T17:37:08;4.80;;;3.00;;
9324;SDS011;4701;51.566;6.776;2023-02-28T17:39:11;5.70;;;2.77;;
9324;SDS011;4701;51.566;6.776;2023-02-28T17:41:16;6.23;;;2.80;;
9324;SDS011;4701;51.566;6.776;2023-02-28T17:43:18;3.77;;;2.57;;
9324;SDS011;4701;51.566;6.776;2023-02-28T17:45:20;5.43;;;3.10;;
9324;SDS011;4701;51.566;6.776;2023-02-28T17:47:22;5.40;;;2.97;;
9324;SDS011;4701;51.566;6.776;2023-02-28T17:49:24;10.10;;;3.13;;
9324;SDS011;4701;51.566;6.776;2023-02-28T17:51:25;34.83;;;17.43;;
9324;SDS011;4701;51.566;6.776;2023-02-28T17:53:27;6.03;;;3.40;;
9324;SDS011;4701;51.566;6.776;2023-02-28T17:55:29;5.27;;;3.67;;
9324;SDS011;4701;51.566;6.776;2023-02-28T17:57:32;4.20;;;3.80;;
9324;SDS011;4701;51.566;6.776;2023-02-28T17:59:34;8.67;;;3.73;;
9324;SDS011;4701;51.566;6.776;2023-02-28T18:01:36;5.30;;;3.43;;
9324;SDS011;4701;51.566;6.776;2023-02-28T18:03:38;5.80;;;3.70;;
9324;SDS011;4701;51.566;6.776;2023-02-28T18:05:40;6.00;;;3.20;;
9324;SDS011;4701;51.566;6.776;2023-02-28T18:07:45;9.00;;;3.67;;
9324;SDS011;4701;51.566;6.776;2023-02-28T18:09:47;3.97;;;2.90;;
9324;SDS011;4701;51.566;6.776;2023-02-28T18:11:49;7.43;;;3.40;;
9324;SDS011;4701;51.566;6.776;2023-02-28T18:13:53;5.00;;;3.30;;
9324;SDS011;4701;51.566;6.776;2023-02-28T18:15:56;10.67;;;3.50;;
9324;SDS011;4701;51.566;6.776;2023-02-28T18:17:58;5.00;;;4.20;;
9324;SDS011;4701;51.566;6.776;2023-02-28T18:19:59;5.67;;;4.00;;
9324;SDS011;4701;51.566;6.776;2023-02-28T18:22:01;6.13;;;3.60;;
9324;SDS011;4701;51.566;6.776;2023-02-28T18:24:03;7.23;;;3.80;;
9324;SDS011;4701;51.566;6.776;2023-02-28T18:26:06;6.73;;;3.70;;
9324;SDS011;4701;51.566;6.776;2023-02-28T18:28:08;6.23;;;3.53;;
9324;SDS011;4701;51.566;6.776;2023-02-28T18:30:12;5.37;;;3.30;;
9324;SDS011;4701;51.566;6.776;2023-02-28T18:34:40;4.13;;;3.03;;
9324;SDS011;4701;51.566;6.776;2023-02-28T18:36:43;6.60;;;3.50;;
9324;SDS011;4701;51.566;6.776;2023-02-28T18:38:46;7.57;;;3.57;;
9324;SDS011;4701;51.566;6.776;2023-02-28T18:41:07;7.43;;;3.60;;
9324;SDS011;4701;51.566;6.776;2023-02-28T18:43:08;4.47;;;3.50;;
9324;SDS011;4701;51.566;6.776;2023-02-28T18:45:12;4.83;;;3.57;;
9324;SDS011;4701;51.566;6.776;2023-02-28T18:47:14;6.73;;;3.57;;
9324;SDS011;4701;51.566;6.776;2023-02-28T18:49:16;5.50;;;3.00;;
9324;SDS011;4701;51.566;6.776;2023-02-28T18:51:18;4.93;;;3.67;;
9324;SDS011;4701;51.566;6.776;2023-02-28T18:53:22;6.73;;;4.03;;
9324;SDS011;4701;51.566;6.776;2023-02-28T18:55:24;12.40;;;6.40;;
9324;SDS011;4701;51.566;6.776;2023-02-28T18:57:29;9.10;;;4.93;;
9324;SDS011;4701;51.566;6.776;2023-02-28T18:59:33;9.37;;;4.93;;
9324;SDS011;4701;51.566;6.776;2023-02-28T19:01:39;11.87;;;6.33;;
9324;SDS011;4701;51.566;6.776;2023-02-28T19:03:41;16.70;;;7.40;;
9324;SDS011;4701;51.566;6.776;2023-02-28T19:05:43;14.80;;;6.97;;
9324;SDS011;4701;51.566;6.776;2023-02-28T19:07:46;13.77;;;5.87;;
9324;SDS011;4701;51.566;6.776;2023-02-28T19:09:48;10.33;;;4.87;;
9324;SDS011;4701;51.566;6.776;2023-02-28T19:12:01;10.03;;;5.17;;
9324;SDS011;4701;51.566;6.776;2023-02-28T19:14:03;7.67;;;4.03;;
9324;SDS011;4701;51.566;6.776;2023-02-28T19:16:09;4.43;;;3.53;;
9324;SDS011;4701;51.566;6.776;2023-02-28T19:18:13;7.80;;;4.30;;
9324;SDS011;4701;51.566;6.776;2023-02-28T19:20:15;8.00;;;4.40;;
9324;SDS011;4701;51.566;6.776;2023-02-28T19:22:18;13.27;;;6.90;;
9324;SDS011;4701;51.566;6.776;2023-02-28T19:24:20;13.30;;;7.03;;
9324;SDS011;4701;51.566;6.776;2023-02-28T19:26:22;8.93;;;5.30;;
9324;SDS011;4701;51.566;6.776;2023-02-28T19:28:27;20.47;;;8.67;;
9324;SDS011;4701;51.566;6.776;2023-02-28T19:30:30;17.13;;;10.37;;
9324;SDS011;4701;51.566;6.776;2023-02-28T19:32:32;15.00;;;7.83;;
9324;SDS011;4701;51.566;6.776;2023-02-28T19:34:35;16.27;;;7.90;;
9324;SDS011;4701;51.566;6.776;2023-02-28T19:36:37;19.73;;;10.80;;
9324;SDS011;4701;51.566;6.776;2023-02-28T19:38:39;15.93;;;8.27;;
9324;SDS011;4701;51.566;6.776;2023-02-28T19:40:43;12.03;;;6.83;;
9324;SDS011;4701;51.566;6.776;2023-02-28T19:42:45;9.07;;;5.00;;
9324;SDS011;4701;51.566;6.776;2023-02-28T19:44:47;6.27;;;4.63;;
9324;SDS011;4701;51.566;6.776;2023-02-28T19:46:49;6.27;;;4.03;;
9324;SDS011;4701;51.566;6.776;2023-02-28T19:48:52;9.63;;;4.30;;
9324;SDS011;4701;51.566;6.776;2023-02-28T19:50:59;9.57;;;4.27;;
9324;SDS011;4701;51.566;6.776;2023-02-28T19:53:02;7.23;;;5.20;;
9324;SDS011;4701;51.566;6.776;2023-02-28T19:55:04;5.00;;;3.53;;
9324;SDS011;4701;51.566;6.776;2023-02-28T19:57:06;5.77;;;3.70;;
9324;SDS011;4701;51.566;6.776;2023-02-28T19:59:08;5.93;;;3.60;;
9324;SDS011;4701;51.566;6.776;2023-02-28T20:01:11;6.33;;;4.00;;
9324;SDS011;4701;51.566;6.776;2023-02-28T20:03:14;9.43;;;4.80;;
9324;SDS011;4701;51.566;6.776;2023-02-28T20:05:17;10.97;;;6.47;;
9324;SDS011;4701;51.566;6.776;2023-02-28T20:07:20;20.90;;;11.13;;
9324;SDS011;4701;51.566;6.776;2023-02-28T20:09:22;21.03;;;12.90;;
9324;SDS011;4701;51.566;6.776;2023-02-28T20:11:24;26.90;;;15.63;;
9324;SDS011;4701;51.566;6.776;2023-02-28T20:13:26;26.13;;;13.83;;
9324;SDS011;4701;51.566;6.776;2023-02-28T20:15:28;18.20;;;10.10;;
9324;SDS011;4701;51.566;6.776;2023-02-28T20:17:31;15.53;;;9.87;;
9324;SDS011;4701;51.566;6.776;2023-02-28T20:19:33;16.50;;;9.57;;